Time;durP1;ratioP1;P1;durP2;ratioP2;P2;SDS_P1;SDS_P2;PMS_P1;PMS_P2;Temp;Humidity;BMP_temperature;BMP_pressure;BME280_temperature;BME280_humidity;BME280_pressure;Samples;Min_cycle;Max_cycle;Signal;HPM_P1;HPM_P2
2021/10/11 00:02:12;;;;;;;15.80;10.15;;;5.00;99.90;;;;;;4985332;28;20037;-79
2021/10/11 00:04:38;;;;;;;18.85;10.88;;;4.90;99.90;;;;;;5004841;28;20022;-80
2021/10/11 00:07:04;;;;;;;16.02;10.63;;;4.90;99.90;;;;;;5009633;28;20395;-79
2021/10/11 00:09:30;;;;;;;17.25;11.68;;;4.90;99.90;;;;;;4995874;28;20041;-79
2021/10/11 00:11:56;;;;;;;16.75;10.98;;;4.90;99.90;;;;;;5021371;28;20045;-79
2021/10/11 00:14:22;;;;;;;17.30;10.85;;;4.90;99.90;;;;;;5024351;28;20034;-81
2021/10/11 00:16:48;;;;;;;19.27;12.02;;;4.90;99.90;;;;;;5030017;28;20029;-81
2021/10/11 00:19:14;;;;;;;16.83;11.90;;;4.90;99.90;;;;;;5005960;28;20109;-80
2021/10/11 00:21:40;;;;;;;17.85;11.43;;;4.90;99.90;;;;;;5023839;28;20074;-79
2021/10/11 00:24:06;;;;;;;19.83;11.40;;;4.80;99.90;;;;;;5005903;28;20032;-80
2021/10/11 00:26:32;;;;;;;17.05;10.73;;;4.80;99.90;;;;;;5022031;28;20070;-79
2021/10/11 00:28:57;;;;;;;15.15;10.68;;;4.80;99.90;;;;;;5004748;28;20032;-79
2021/10/11 00:31:23;;;;;;;17.38;11.27;;;4.80;99.90;;;;;;5022324;28;20213;-80
2021/10/11 00:33:49;;;;;;;18.15;10.57;;;4.80;99.90;;;;;;5028000;28;20057;-80
2021/10/11 00:36:14;;;;;;;17.00;10.57;;;4.80;99.90;;;;;;5029307;28;20038;-80
2021/10/11 00:38:40;;;;;;;15.30;10.35;;;4.80;99.90;;;;;;5024246;28;20038;-79
2021/10/11 00:41:06;;;;;;;15.65;10.05;;;4.80;99.90;;;;;;5020925;28;20038;-79
2021/10/11 00:43:32;;;;;;;15.48;10.43;;;4.80;99.90;;;;;;5011914;28;20388;-80
2021/10/11 00:45:57;;;;;;;19.58;12.43;;;4.80;99.90;;;;;;5022771;28;20040;-80
2021/10/11 00:48:23;;;;;;;18.65;13.25;;;4.80;99.90;;;;;;5024071;28;20081;-80
2021/10/11 00:50:51;;;;;;;19.02;12.75;;;4.70;99.90;;;;;;5022721;28;20064;-80
2021/10/11 00:53:19;;;;;;;19.17;12.43;;;4.70;99.90;;;;;;5004585;28;20053;-80
2021/10/11 00:55:45;;;;;;;17.92;11.93;;;4.60;99.90;;;;;;5018703;28;20106;-78
2021/10/11 00:58:10;;;;;;;17.05;10.75;;;4.60;99.90;;;;;;5006387;28;20065;-80
2021/10/11 01:00:36;;;;;;;16.02;11.05;;;4.60;99.90;;;;;;5009895;28;20026;-80
2021/10/11 01:03:02;;;;;;;17.33;9.95;;;4.50;99.90;;;;;;4991541;28;20022;-81
2021/10/11 01:05:28;;;;;;;14.52;9.73;;;4.50;99.90;;;;;;5009973;28;20034;-81
2021/10/11 01:07:54;;;;;;;17.15;10.10;;;4.50;99.90;;;;;;5009519;28;20026;-80
2021/10/11 01:10:20;;;;;;;17.02;11.05;;;4.50;99.90;;;;;;5005123;28;20030;-79
2021/10/11 01:12:45;;;;;;;17.60;11.25;;;4.50;99.90;;;;;;4998520;28;20014;-80
2021/10/11 01:15:11;;;;;;;17.02;11.15;;;4.50;99.90;;;;;;5013139;28;20447;-80
2021/10/11 01:17:37;;;;;;;14.80;10.35;;;4.50;99.90;;;;;;5014847;28;20065;-80
2021/10/11 01:20:03;;;;;;;15.68;10.68;;;4.50;99.90;;;;;;5013843;28;20380;-80
2021/10/11 01:22:38;;;;;;;18.48;10.52;;;4.50;99.90;;;;;;5006972;28;20022;-79
2021/10/11 01:25:09;;;;;;;19.20;11.15;;;4.50;99.90;;;;;;5004669;28;20045;-80
2021/10/11 01:27:35;;;;;;;15.45;10.45;;;4.50;99.90;;;;;;5006308;28;20026;-79
2021/10/11 01:30:03;;;;;;;18.90;10.48;;;4.50;99.90;;;;;;5011461;28;20070;-81
2021/10/11 01:32:28;;;;;;;16.73;10.45;;;4.50;99.90;;;;;;5013575;28;20118;-79
2021/10/11 01:34:54;;;;;;;13.65;9.88;;;4.50;99.90;;;;;;5019510;23;20522;-79
2021/10/11 01:37:20;;;;;;;14.07;9.35;;;4.50;99.90;;;;;;4992751;28;20050;-79
2021/10/11 01:39:45;;;;;;;21.05;12.43;;;4.50;99.90;;;;;;4979143;28;20030;-80
2021/10/11 01:42:11;;;;;;;19.52;12.35;;;4.50;99.90;;;;;;4996494;28;20086;-79
2021/10/11 01:44:39;;;;;;;18.90;11.73;;;4.50;99.90;;;;;;4996968;28;20033;-80
2021/10/11 01:47:05;;;;;;;16.38;11.02;;;4.40;99.90;;;;;;5037165;28;20037;-80
2021/10/11 01:49:31;;;;;;;19.65;11.80;;;4.40;99.90;;;;;;5047684;28;20026;-79
2021/10/11 01:51:57;;;;;;;20.27;11.45;;;4.40;99.90;;;;;;5051071;28;20030;-80
2021/10/11 01:54:22;;;;;;;18.05;11.27;;;4.40;99.90;;;;;;5018537;28;20049;-80
2021/10/11 01:56:48;;;;;;;16.98;10.75;;;4.30;99.90;;;;;;5018743;28;20018;-80
2021/10/11 01:59:14;;;;;;;14.32;10.20;;;4.30;99.90;;;;;;5038590;28;20033;-80
2021/10/11 02:01:40;;;;;;;17.83;10.65;;;4.30;99.90;;;;;;5043951;28;20044;-80
2021/10/11 02:04:05;;;;;;;17.70;12.15;;;4.20;99.90;;;;;;5040686;28;20397;-80
2021/10/11 02:06:31;;;;;;;20.10;11.63;;;4.20;99.90;;;;;;5018670;28;20033;-80
2021/10/11 02:08:57;;;;;;;19.08;11.70;;;4.20;99.90;;;;;;5037166;28;20393;-81
2021/10/11 02:11:23;;;;;;;20.23;11.95;;;4.10;99.90;;;;;;5032580;28;20018;-79
2021/10/11 02:13:48;;;;;;;17.30;11.23;;;4.10;99.90;;;;;;5026145;28;20084;-79
2021/10/11 02:16:14;;;;;;;17.52;10.82;;;4.10;99.90;;;;;;5022375;28;20025;-79
2021/10/11 02:18:40;;;;;;;15.55;10.15;;;4.00;99.90;;;;;;5040269;28;20037;-79
2021/10/11 02:21:06;;;;;;;19.33;10.68;;;4.00;99.90;;;;;;5040601;28;20072;-80
2021/10/11 02:23:31;;;;;;;18.10;10.43;;;4.00;99.90;;;;;;5028969;28;20036;-80
2021/10/11 02:25:57;;;;;;;17.98;10.82;;;3.90;99.90;;;;;;5021253;28;20089;-79
2021/10/11 02:28:23;;;;;;;15.45;9.48;;;3.90;99.90;;;;;;5020407;28;20474;-80
2021/10/11 02:30:54;;;;;;;15.63;10.82;;;3.90;99.90;;;;;;5021066;28;20022;-82
2021/10/11 02:33:20;;;;;;;15.20;9.75;;;3.90;99.90;;;;;;5021421;28;20049;-80
2021/10/11 02:35:46;;;;;;;14.70;9.95;;;3.90;99.90;;;;;;5020785;28;20037;-80
2021/10/11 02:38:11;;;;;;;17.40;9.93;;;3.90;99.90;;;;;;5021242;28;20422;-80
2021/10/11 02:40:39;;;;;;;14.43;9.93;;;3.80;99.90;;;;;;5020617;28;20475;-79
2021/10/11 02:43:04;;;;;;;15.57;9.73;;;3.80;99.90;;;;;;5029381;28;20028;-80
2021/10/11 02:45:30;;;;;;;16.02;8.90;;;3.80;99.90;;;;;;5020009;28;20113;-80
2021/10/11 02:47:56;;;;;;;14.88;10.20;;;3.80;99.90;;;;;;5020648;28;20025;-80
2021/10/11 02:50:22;;;;;;;14.07;9.07;;;3.80;99.90;;;;;;5020738;28;20029;-80
2021/10/11 02:52:48;;;;;;;12.35;8.82;;;3.90;99.90;;;;;;5020414;28;20402;-79
2021/10/11 02:55:14;;;;;;;13.57;8.45;;;3.90;99.90;;;;;;5020810;28;20030;-79
2021/10/11 02:57:39;;;;;;;12.82;8.50;;;3.90;99.90;;;;;;5029842;28;20078;-81
2021/10/11 03:00:06;;;;;;;11.02;7.75;;;3.90;99.90;;;;;;5040601;28;20411;-81
2021/10/11 03:02:32;;;;;;;10.48;7.22;;;3.90;99.90;;;;;;5040334;28;20037;-81
2021/10/11 03:04:58;;;;;;;11.25;7.70;;;3.90;99.90;;;;;;5040990;28;20029;-80
2021/10/11 03:07:23;;;;;;;10.45;7.18;;;3.90;99.90;;;;;;5044581;28;20116;-81
2021/10/11 03:09:49;;;;;;;10.02;7.15;;;3.90;99.90;;;;;;5041631;28;20031;-80
2021/10/11 03:12:15;;;;;;;10.13;7.28;;;3.90;99.90;;;;;;5033014;28;20490;-80
2021/10/11 03:14:41;;;;;;;9.77;6.97;;;3.90;99.90;;;;;;5031896;28;20424;-79
2021/10/11 03:17:07;;;;;;;10.27;6.65;;;3.90;99.90;;;;;;5047110;28;20033;-79
2021/10/11 03:19:33;;;;;;;9.30;6.57;;;3.90;99.90;;;;;;5025052;28;20061;-80
2021/10/11 03:21:58;;;;;;;9.73;6.47;;;3.90;99.90;;;;;;5025425;28;20032;-79
2021/10/11 03:24:24;;;;;;;12.10;6.53;;;3.90;99.90;;;;;;5043852;28;20026;-79
2021/10/11 03:26:50;;;;;;;9.43;6.78;;;3.90;99.90;;;;;;5045690;28;20029;-79
2021/10/11 03:29:17;;;;;;;8.95;6.57;;;3.90;99.90;;;;;;5028605;28;20030;-80
2021/10/11 03:31:43;;;;;;;9.95;6.95;;;3.90;99.90;;;;;;5046998;28;20013;-79
2021/10/11 03:34:11;;;;;;;11.45;7.82;;;3.90;99.90;;;;;;5007780;28;20030;-80
2021/10/11 03:36:41;;;;;;;10.32;7.32;;;3.80;99.90;;;;;;5006757;28;20034;-80
2021/10/11 03:39:07;;;;;;;11.85;7.65;;;3.80;99.90;;;;;;5007489;28;20030;-80
2021/10/11 03:41:34;;;;;;;10.13;7.05;;;3.80;99.90;;;;;;5012740;28;20029;-79
2021/10/11 03:44:03;;;;;;;10.20;7.60;;;3.80;99.90;;;;;;5045175;28;20025;-80
2021/10/11 03:46:30;;;;;;;10.07;7.05;;;3.70;99.90;;;;;;5046922;28;20040;-80
2021/10/11 03:48:56;;;;;;;8.32;6.40;;;3.70;99.90;;;;;;5046275;28;20025;-80
2021/10/11 03:51:21;;;;;;;8.65;6.72;;;3.70;99.90;;;;;;5026178;28;20105;-80
2021/10/11 03:53:50;;;;;;;8.90;6.53;;;3.70;99.90;;;;;;5026415;28;20022;-80
2021/10/11 03:56:16;;;;;;;8.63;6.15;;;3.70;99.90;;;;;;5008005;28;20430;-80
2021/10/11 03:58:41;;;;;;;9.10;6.60;;;3.70;99.90;;;;;;5026536;28;20026;-80
2021/10/11 04:01:07;;;;;;;11.68;7.25;;;3.70;99.90;;;;;;5027194;28;20026;-82
2021/10/11 04:03:33;;;;;;;9.68;6.47;;;3.60;99.90;;;;;;5025328;28;20655;-83
2021/10/11 04:06:00;;;;;;;10.02;7.07;;;3.60;99.90;;;;;;5023161;28;20025;-82
2021/10/11 04:08:37;;;;;;;9.98;6.45;;;3.60;99.90;;;;;;5005402;28;20050;-80
2021/10/11 04:11:22;;;;;;;10.73;7.43;;;3.60;99.90;;;;;;5019815;28;20109;-80
2021/10/11 04:13:48;;;;;;;10.68;7.72;;;3.50;99.90;;;;;;5026887;28;20026;-80
2021/10/11 04:16:15;;;;;;;11.15;7.45;;;3.50;99.90;;;;;;5018811;28;20033;-80
2021/10/11 04:18:41;;;;;;;9.93;7.07;;;3.50;99.90;;;;;;5019237;28;20501;-81
2021/10/11 04:21:07;;;;;;;10.95;7.05;;;3.50;99.90;;;;;;5018431;28;20033;-80
2021/10/11 04:23:33;;;;;;;10.50;7.53;;;3.50;99.90;;;;;;5017985;28;20025;-80
2021/10/11 04:25:59;;;;;;;9.82;6.65;;;3.50;99.90;;;;;;5001809;28;20026;-80
2021/10/11 04:28:25;;;;;;;11.07;7.15;;;3.40;99.90;;;;;;5018467;28;20029;-80
2021/10/11 04:30:51;;;;;;;10.65;6.95;;;3.50;99.90;;;;;;5000959;28;20038;-81
2021/10/11 04:33:18;;;;;;;10.48;7.30;;;3.40;99.90;;;;;;5018581;28;20100;-80
2021/10/11 04:35:45;;;;;;;10.98;7.13;;;3.40;99.90;;;;;;5017885;28;20402;-80
2021/10/11 04:38:11;;;;;;;11.05;6.65;;;3.40;99.90;;;;;;5018173;28;20049;-81
2021/10/11 04:40:37;;;;;;;13.45;8.43;;;3.30;99.90;;;;;;5018247;28;20368;-81
2021/10/11 04:43:03;;;;;;;11.73;8.23;;;3.30;99.90;;;;;;5018713;28;20025;-82
2021/10/11 04:45:29;;;;;;;12.13;7.50;;;3.30;99.90;;;;;;5032629;28;20077;-80
2021/10/11 04:48:04;;;;;;;13.38;7.97;;;3.20;99.90;;;;;;5037591;28;20563;-79
2021/10/11 04:50:31;;;;;;;9.85;6.82;;;3.20;99.90;;;;;;5040652;28;20013;-80
2021/10/11 04:52:57;;;;;;;12.50;8.15;;;3.10;99.90;;;;;;5042783;28;20043;-80
2021/10/11 04:55:23;;;;;;;10.18;6.90;;;3.10;99.90;;;;;;5052964;28;20040;-80
2021/10/11 04:57:49;;;;;;;11.82;7.75;;;3.10;99.90;;;;;;5041787;28;20034;-80
2021/10/11 05:00:15;;;;;;;10.05;7.03;;;3.10;99.90;;;;;;5023286;28;20071;-80
2021/10/11 05:02:41;;;;;;;11.73;7.82;;;3.10;99.90;;;;;;5042768;28;20034;-80
2021/10/11 05:05:07;;;;;;;10.82;6.93;;;3.20;99.90;;;;;;5043687;28;20029;-80
2021/10/11 05:07:33;;;;;;;11.48;7.40;;;3.20;99.90;;;;;;5044124;28;20033;-80
2021/10/11 05:09:58;;;;;;;10.20;6.95;;;3.20;99.90;;;;;;5039528;28;20029;-80
2021/10/11 05:12:24;;;;;;;9.88;6.60;;;3.20;99.90;;;;;;5031641;28;20600;-80
2021/10/11 05:14:50;;;;;;;11.75;7.43;;;3.20;99.90;;;;;;5019909;28;20025;-81
2021/10/11 05:17:15;;;;;;;11.23;6.35;;;3.10;99.90;;;;;;5016788;28;20485;-80
2021/10/11 05:19:41;;;;;;;10.00;6.43;;;3.10;99.90;;;;;;4999641;28;20037;-80
2021/10/11 05:22:07;;;;;;;9.55;6.88;;;3.10;99.90;;;;;;5017463;28;20029;-81
2021/10/11 05:24:35;;;;;;;9.95;6.78;;;3.10;99.90;;;;;;5002425;28;20029;-80
2021/10/11 05:27:01;;;;;;;8.32;6.13;;;3.10;99.90;;;;;;5020334;28;20076;-81
2021/10/11 05:29:27;;;;;;;10.63;6.85;;;3.10;99.90;;;;;;5019313;28;20048;-81
2021/10/11 05:31:53;;;;;;;9.27;6.22;;;3.20;99.90;;;;;;5018516;28;20033;-81
2021/10/11 05:34:19;;;;;;;9.00;6.68;;;3.20;99.90;;;;;;5020832;28;20056;-81
2021/10/11 05:36:45;;;;;;;9.45;6.43;;;3.20;99.90;;;;;;5018883;28;20053;-80
2021/10/11 05:39:11;;;;;;;11.98;6.38;;;3.20;99.90;;;;;;5018878;28;20029;-81
2021/10/11 05:41:37;;;;;;;14.55;6.90;;;3.20;99.90;;;;;;5017961;28;20026;-79
2021/10/11 05:44:03;;;;;;;9.38;6.20;;;3.20;99.90;;;;;;5016653;28;20037;-80
2021/10/11 05:46:29;;;;;;;8.05;5.75;;;3.20;99.90;;;;;;5019433;28;20032;-80
2021/10/11 05:48:55;;;;;;;5.97;4.57;;;3.20;99.90;;;;;;5018575;28;20033;-80
2021/10/11 05:51:20;;;;;;;6.13;4.75;;;3.20;99.90;;;;;;5022237;28;20022;-80
2021/10/11 05:53:46;;;;;;;6.80;4.82;;;3.30;99.90;;;;;;5021880;28;20105;-79
2021/10/11 05:56:12;;;;;;;8.52;5.70;;;3.30;99.90;;;;;;5022261;28;20052;-81
2021/10/11 05:58:38;;;;;;;5.53;4.40;;;3.40;99.90;;;;;;5021515;28;20042;-80
2021/10/11 06:01:03;;;;;;;6.97;4.82;;;3.40;99.90;;;;;;5021264;28;20065;-80
2021/10/11 06:03:29;;;;;;;7.15;4.75;;;3.40;99.90;;;;;;5022901;28;20029;-80
2021/10/11 06:05:55;;;;;;;7.43;4.93;;;3.40;99.90;;;;;;5021601;28;20490;-80
2021/10/11 06:08:21;;;;;;;9.40;5.53;;;3.50;99.90;;;;;;5022808;28;20113;-80
2021/10/11 06:10:47;;;;;;;9.65;5.35;;;3.50;99.90;;;;;;5005657;28;20107;-80
2021/10/11 06:13:13;;;;;;;7.97;5.18;;;3.50;99.90;;;;;;5020587;28;20053;-79
2021/10/11 06:15:39;;;;;;;7.93;5.05;;;3.50;99.90;;;;;;5036777;28;20032;-81
2021/10/11 06:18:05;;;;;;;6.85;5.10;;;3.50;99.90;;;;;;5041859;28;20097;-79
2021/10/11 06:20:31;;;;;;;8.15;4.88;;;3.60;99.90;;;;;;5042414;28;20037;-80
2021/10/11 06:22:56;;;;;;;8.23;4.93;;;3.60;99.90;;;;;;5046078;28;20119;-80
2021/10/11 06:25:22;;;;;;;9.38;6.07;;;3.60;99.90;;;;;;5047198;28;20131;-81
2021/10/11 06:27:48;;;;;;;6.38;4.75;;;3.70;99.90;;;;;;5042077;28;20032;-80
2021/10/11 06:30:14;;;;;;;9.40;6.05;;;3.70;99.90;;;;;;5041799;28;20455;-80
2021/10/11 06:32:40;;;;;;;8.68;5.82;;;3.80;99.90;;;;;;5042061;28;20033;-80
2021/10/11 06:35:07;;;;;;;8.43;5.72;;;3.90;99.90;;;;;;5023710;28;20079;-80
2021/10/11 06:37:32;;;;;;;9.18;5.72;;;3.90;99.90;;;;;;5040812;28;20021;-80
2021/10/11 06:39:58;;;;;;;7.93;5.22;;;4.00;99.90;;;;;;5041643;28;20032;-79
2021/10/11 06:42:24;;;;;;;6.75;4.97;;;4.10;99.90;;;;;;5040885;28;20028;-81
2021/10/11 06:44:50;;;;;;;7.45;5.15;;;4.30;99.90;;;;;;5023088;28;20326;-81
2021/10/11 06:47:16;;;;;;;6.57;4.50;;;4.30;99.90;;;;;;5024974;28;20088;-80
2021/10/11 06:49:42;;;;;;;7.75;5.15;;;4.40;99.90;;;;;;5041035;28;20033;-80
2021/10/11 06:52:08;;;;;;;6.60;4.78;;;4.50;99.90;;;;;;5040624;28;20412;-80
2021/10/11 06:54:34;;;;;;;9.02;4.97;;;4.60;99.90;;;;;;5041190;28;20050;-80
2021/10/11 06:56:59;;;;;;;8.27;5.03;;;4.60;99.90;;;;;;5040503;28;20026;-80
2021/10/11 06:59:26;;;;;;;8.30;4.90;;;4.70;99.90;;;;;;5025407;28;20030;-80
2021/10/11 07:01:51;;;;;;;6.20;4.50;;;4.80;99.90;;;;;;5002472;28;20037;-80
2021/10/11 07:04:17;;;;;;;5.43;4.03;;;4.90;99.90;;;;;;5020044;28;20038;-79
2021/10/11 07:06:43;;;;;;;6.82;4.47;;;5.00;99.90;;;;;;5021306;28;20022;-81
2021/10/11 07:09:09;;;;;;;6.00;4.68;;;5.10;99.90;;;;;;5021860;28;20030;-80
2021/10/11 07:11:34;;;;;;;6.30;4.68;;;5.20;99.90;;;;;;5003075;28;20121;-80
2021/10/11 07:14:00;;;;;;;8.30;4.32;;;5.30;99.90;;;;;;5028128;28;20394;-81
2021/10/11 07:16:26;;;;;;;6.57;4.28;;;5.50;99.90;;;;;;5032427;28;20529;-80
2021/10/11 07:18:52;;;;;;;7.10;4.32;;;5.60;99.90;;;;;;5007213;28;20030;-81
2021/10/11 07:21:18;;;;;;;4.82;3.85;;;5.80;99.90;;;;;;5020890;28;20026;-80
2021/10/11 07:23:43;;;;;;;5.60;4.25;;;5.90;99.90;;;;;;5020699;28;20033;-80
2021/10/11 07:26:09;;;;;;;8.82;4.80;;;6.10;99.90;;;;;;5002361;28;20083;-81
2021/10/11 07:28:36;;;;;;;6.05;4.30;;;6.30;99.30;;;;;;5021344;28;20075;-80
2021/10/11 07:31:02;;;;;;;7.90;5.50;;;6.40;98.90;;;;;;5004572;28;20026;-81
2021/10/11 07:33:29;;;;;;;5.30;3.90;;;6.50;98.50;;;;;;5011393;28;20036;-81
2021/10/11 07:35:55;;;;;;;6.13;4.38;;;6.70;97.80;;;;;;5051591;23;20120;-77
2021/10/11 07:38:20;;;;;;;5.47;3.60;;;6.80;97.30;;;;;;5019047;28;20080;-79
2021/10/11 07:40:47;;;;;;;6.97;4.18;;;7.00;97.10;;;;;;5022769;28;20026;-79
2021/10/11 07:43:13;;;;;;;6.28;4.00;;;7.20;96.80;;;;;;5030441;28;20036;-78
2021/10/11 07:45:38;;;;;;;7.90;4.32;;;7.50;96.20;;;;;;5037026;28;20018;-78
2021/10/11 07:48:04;;;;;;;5.75;4.13;;;7.60;95.30;;;;;;5040192;28;20374;-79
2021/10/11 07:50:30;;;;;;;6.80;4.57;;;7.70;94.70;;;;;;5020454;28;20486;-80
2021/10/11 07:52:56;;;;;;;6.63;4.80;;;7.90;94.50;;;;;;5038947;28;20032;-80
2021/10/11 07:55:22;;;;;;;6.20;4.85;;;8.00;94.00;;;;;;5039223;28;20508;-80
2021/10/11 07:57:48;;;;;;;8.35;4.97;;;8.20;93.50;;;;;;5038941;28;20029;-80
2021/10/11 08:00:17;;;;;;;8.75;4.88;;;8.40;93.20;;;;;;5039701;28;20021;-80
2021/10/11 08:02:43;;;;;;;6.30;4.10;;;8.60;92.90;;;;;;5022533;28;20389;-80
2021/10/11 08:05:09;;;;;;;6.45;4.13;;;8.70;92.50;;;;;;5025755;28;20032;-79
2021/10/11 08:07:35;;;;;;;8.40;4.40;;;9.00;92.00;;;;;;5044606;28;20022;-78
2021/10/11 08:10:02;;;;;;;7.03;3.80;;;9.20;91.60;;;;;;5026370;28;20026;-79
2021/10/11 08:12:29;;;;;;;6.97;4.18;;;9.40;91.10;;;;;;5019655;28;20056;-80
2021/10/11 08:14:55;;;;;;;4.78;3.90;;;9.70;90.50;;;;;;5027297;28;20120;-78
2021/10/11 08:17:21;;;;;;;7.72;4.78;;;9.90;90.10;;;;;;5024622;28;20029;-79
2021/10/11 08:19:46;;;;;;;5.05;4.30;;;10.10;88.30;;;;;;5022555;28;20026;-80
2021/10/11 08:22:12;;;;;;;7.30;4.60;;;10.30;86.80;;;;;;5021022;28;20037;-80
2021/10/11 08:24:38;;;;;;;5.30;3.85;;;10.50;85.40;;;;;;5019626;28;20026;-80
2021/10/11 08:27:05;;;;;;;5.30;4.18;;;10.60;84.00;;;;;;5036398;28;20478;-80
2021/10/11 08:29:32;;;;;;;8.50;5.35;;;10.70;83.30;;;;;;5022049;28;20090;-77
2021/10/11 08:31:58;;;;;;;11.77;6.80;;;10.90;81.90;;;;;;5001389;28;20045;-78
2021/10/11 08:34:24;;;;;;;9.07;6.35;;;11.10;80.10;;;;;;5019565;28;20308;-79
2021/10/11 08:36:50;;;;;;;8.77;6.00;;;11.20;79.00;;;;;;5019067;28;20060;-80
2021/10/11 08:39:15;;;;;;;7.57;4.82;;;11.30;78.80;;;;;;5019669;28;20437;-80
2021/10/11 08:41:42;;;;;;;5.72;4.43;;;11.40;78.50;;;;;;5018790;28;20029;-80
2021/10/11 08:44:11;;;;;;;5.82;4.75;;;11.60;78.20;;;;;;5035661;28;20124;-81
2021/10/11 08:46:37;;;;;;;6.78;5.65;;;11.80;77.20;;;;;;5020051;28;20104;-81
2021/10/11 08:49:03;;;;;;;8.23;5.65;;;12.00;76.30;;;;;;5018379;28;20026;-79
2021/10/11 08:51:28;;;;;;;8.35;5.55;;;12.20;76.30;;;;;;5019390;28;20022;-79
2021/10/11 08:53:54;;;;;;;10.38;7.40;;;12.40;75.50;;;;;;5019896;28;20030;-79
2021/10/11 08:56:20;;;;;;;8.43;6.13;;;12.50;73.40;;;;;;5018378;28;20156;-79
2021/10/11 08:58:48;;;;;;;11.73;6.53;;;12.50;74.10;;;;;;5019436;28;20053;-79
2021/10/11 09:01:15;;;;;;;11.05;7.72;;;12.60;74.00;;;;;;5019468;28;20018;-79
2021/10/11 09:03:41;;;;;;;13.63;7.95;;;12.70;72.90;;;;;;5001716;28;20041;-77
2021/10/11 09:06:09;;;;;;;11.45;7.43;;;12.70;72.80;;;;;;5018147;28;20331;-79
2021/10/11 09:08:36;;;;;;;9.52;5.50;;;12.60;73.40;;;;;;5019000;28;20036;-78
2021/10/11 09:11:05;;;;;;;6.22;4.97;;;12.80;74.20;;;;;;5018347;28;20478;-79
2021/10/11 09:13:41;;;;;;;11.80;7.88;;;13.00;73.40;;;;;;5033332;28;20022;-79
2021/10/11 09:16:41;;;;;;;7.93;6.53;;;13.00;71.70;;;;;;5018658;28;20025;-78
2021/10/11 09:19:16;;;;;;;12.57;7.95;;;12.80;72.80;;;;;;5022249;28;20121;-79
2021/10/11 09:21:43;;;;;;;16.80;8.27;;;13.00;72.00;;;;;;5037439;28;20033;-80
2021/10/11 09:24:10;;;;;;;13.98;8.48;;;13.10;71.60;;;;;;5037106;28;20034;-80
2021/10/11 09:26:52;;;;;;;13.07;8.05;;;13.20;71.40;;;;;;5038723;28;20017;-79
2021/10/11 09:29:35;;;;;;;13.60;9.85;;;13.10;72.40;;;;;;5021842;28;20037;-79
2021/10/11 09:32:07;;;;;;;14.02;9.20;;;13.10;69.70;;;;;;5022803;28;20053;-80
2021/10/11 09:34:35;;;;;;;15.15;8.82;;;12.80;70.80;;;;;;5023948;28;20036;-80
2021/10/11 09:37:03;;;;;;;13.35;8.65;;;12.80;71.40;;;;;;5021666;28;20026;-80
2021/10/11 09:39:31;;;;;;;16.02;9.07;;;12.80;71.70;;;;;;5020168;28;20092;-80
2021/10/11 09:41:58;;;;;;;14.70;8.88;;;13.00;70.20;;;;;;5020341;28;20112;-80
2021/10/11 09:44:24;;;;;;;16.42;9.48;;;12.90;70.60;;;;;;5029548;28;20370;-80
2021/10/11 09:47:10;;;;;;;15.13;9.18;;;12.50;70.40;;;;;;5038291;28;20045;-80
2021/10/11 09:49:38;;;;;;;14.20;8.73;;;12.40;71.40;;;;;;4999184;28;20030;-81
2021/10/11 09:52:05;;;;;;;18.63;10.23;;;12.40;71.00;;;;;;5001869;28;20027;-79
2021/10/11 09:54:31;;;;;;;13.00;8.60;;;12.60;69.40;;;;;;5005037;28;20018;-79
2021/10/11 09:56:58;;;;;;;13.35;8.60;;;12.80;69.30;;;;;;5001671;28;20015;-80
2021/10/11 09:59:24;;;;;;;11.43;7.47;;;13.00;69.50;;;;;;4999991;28;20041;-80
2021/10/11 10:01:51;;;;;;;13.30;7.63;;;13.20;69.30;;;;;;4998577;28;20042;-80
2021/10/11 10:04:27;;;;;;;9.15;7.50;;;13.30;69.00;;;;;;4988388;28;20045;-79
2021/10/11 10:06:55;;;;;;;15.95;8.45;;;13.50;68.50;;;;;;5006296;28;20103;-80
2021/10/11 10:09:23;;;;;;;13.77;7.97;;;13.70;68.10;;;;;;4988042;28;20133;-80
2021/10/11 10:11:49;;;;;;;13.43;8.85;;;13.70;67.60;;;;;;5010488;28;20094;-79
2021/10/11 10:14:26;;;;;;;13.70;8.27;;;13.90;66.40;;;;;;5017162;28;20029;-79
2021/10/11 10:16:55;;;;;;;14.52;7.85;;;14.00;66.00;;;;;;5019011;28;20026;-78
2021/10/11 10:19:39;;;;;;;14.43;8.80;;;14.10;65.90;;;;;;5023058;28;20026;-78
2021/10/11 10:22:16;;;;;;;17.98;9.90;;;14.20;64.00;;;;;;5020244;28;20029;-79
2021/10/11 10:24:43;;;;;;;15.55;9.02;;;14.20;62.50;;;;;;5021599;28;20098;-79
2021/10/11 10:27:11;;;;;;;10.75;7.95;;;14.10;63.30;;;;;;5024214;28;20030;-79
2021/10/11 10:29:55;;;;;;;11.23;7.57;;;14.00;63.90;;;;;;5020465;28;20018;-79
2021/10/11 10:32:20;;;;;;;11.48;8.65;;;13.90;63.90;;;;;;5021373;28;20026;-79
2021/10/11 10:34:59;;;;;;;14.07;8.20;;;14.00;63.90;;;;;;5027002;28;20072;-79
2021/10/11 10:37:36;;;;;;;10.80;7.95;;;14.00;63.60;;;;;;5033297;28;20086;-78
2021/10/11 10:40:13;;;;;;;10.98;7.13;;;14.00;63.90;;;;;;5033581;28;20044;-80
2021/10/11 10:42:39;;;;;;;13.60;9.35;;;13.90;64.40;;;;;;5039856;28;20040;-79
2021/10/11 10:45:17;;;;;;;13.10;8.65;;;13.90;64.00;;;;;;5037839;28;20089;-78
2021/10/11 10:47:43;;;;;;;14.15;8.68;;;14.00;63.90;;;;;;5026454;28;20021;-80
2021/10/11 10:50:19;;;;;;;10.75;6.65;;;14.10;62.50;;;;;;5043937;28;20044;-78
2021/10/11 10:52:49;;;;;;;10.40;6.47;;;14.30;63.20;;;;;;5024415;28;20030;-79
2021/10/11 10:55:16;;;;;;;8.98;6.45;;;14.50;62.20;;;;;;5041389;28;20029;-80
2021/10/11 10:57:43;;;;;;;14.38;8.10;;;14.60;61.90;;;;;;5042124;28;20063;-79
2021/10/11 11:00:18;;;;;;;13.93;7.60;;;14.50;60.70;;;;;;5042266;28;20089;-77
2021/10/11 11:02:45;;;;;;;12.85;7.47;;;14.60;60.20;;;;;;5028339;28;20025;-77
2021/10/11 11:05:13;;;;;;;12.57;7.72;;;14.60;59.80;;;;;;5047624;28;20025;-79
2021/10/11 11:07:40;;;;;;;14.32;8.32;;;14.50;59.80;;;;;;5045094;28;20100;-79
2021/10/11 11:10:17;;;;;;;10.07;6.75;;;14.60;59.50;;;;;;5043251;28;20026;-80
2021/10/11 11:12:56;;;;;;;10.15;6.07;;;14.50;59.70;;;;;;5018538;28;20033;-79
2021/10/11 11:15:34;;;;;;;8.85;6.78;;;14.50;59.80;;;;;;5030102;28;20034;-78
2021/10/11 11:18:08;;;;;;;12.88;7.45;;;14.70;60.00;;;;;;5004669;28;20406;-79
2021/10/11 11:20:36;;;;;;;14.90;7.80;;;14.80;59.50;;;;;;5021192;28;20018;-77
2021/10/11 11:23:13;;;;;;;9.25;6.50;;;14.60;59.60;;;;;;5005137;28;20072;-81
2021/10/11 11:25:42;;;;;;;9.45;6.57;;;14.50;60.70;;;;;;5008540;28;20048;-81
2021/10/11 11:28:10;;;;;;;10.88;6.40;;;14.50;60.60;;;;;;5023110;28;20032;-79
2021/10/11 11:30:37;;;;;;;8.00;5.95;;;14.40;60.40;;;;;;5020740;28;20069;-79
2021/10/11 11:33:07;;;;;;;10.43;5.97;;;14.60;60.00;;;;;;5038008;28;20025;-79
2021/10/11 11:35:32;;;;;;;8.77;5.78;;;14.80;59.40;;;;;;5027903;28;20087;-77
2021/10/11 11:38:00;;;;;;;8.73;5.25;;;15.00;58.00;;;;;;5044899;28;20030;-80
2021/10/11 11:40:33;;;;;;;8.70;5.10;;;15.20;57.00;;;;;;5042062;28;20045;-79
2021/10/11 11:42:59;;;;;;;7.68;4.80;;;15.00;56.80;;;;;;5013612;28;20025;-80
2021/10/11 11:45:53;;;;;;;9.48;5.97;;;14.70;57.60;;;;;;5033105;28;20032;-79
2021/10/11 11:48:20;;;;;;;8.05;5.00;;;14.90;58.30;;;;;;5036284;28;20431;-78
2021/10/11 11:50:53;;;;;;;10.68;5.68;;;15.00;57.50;;;;;;5039136;28;20048;-80
2021/10/11 11:53:22;;;;;;;10.00;6.80;;;15.20;56.40;;;;;;5021560;28;20043;-79
2021/10/11 11:55:51;;;;;;;10.77;5.07;;;15.50;55.60;;;;;;5028389;28;20026;-80
2021/10/11 11:58:35;;;;;;;8.77;4.75;;;15.50;54.50;;;;;;5041957;28;20052;-78
2021/10/11 12:01:24;;;;;;;10.45;4.60;;;15.50;53.40;;;;;;5021789;28;20025;-80
2021/10/11 12:04:08;;;;;;;6.13;4.35;;;15.50;52.70;;;;;;5021380;28;20025;-80
2021/10/11 12:06:35;;;;;;;6.55;4.93;;;15.30;53.20;;;;;;5040598;28;20049;-81
2021/10/11 12:09:01;;;;;;;7.05;4.93;;;15.30;52.90;;;;;;5041170;28;20099;-81
2021/10/11 12:11:27;;;;;;;12.38;6.50;;;15.30;53.70;;;;;;5038094;28;20026;-79
2021/10/11 12:13:57;;;;;;;8.95;6.05;;;15.40;54.40;;;;;;5032871;28;20017;-79
2021/10/11 12:16:26;;;;;;;8.45;5.20;;;15.50;54.60;;;;;;5023664;28;20022;-79
2021/10/11 12:18:54;;;;;;;8.00;4.95;;;15.70;54.00;;;;;;5024732;28;20029;-80
2021/10/11 12:21:29;;;;;;;8.68;5.57;;;15.70;53.50;;;;;;5023438;28;20063;-78
2021/10/11 12:24:00;;;;;;;7.38;5.82;;;15.80;53.20;;;;;;5038944;28;20467;-80
2021/10/11 12:26:27;;;;;;;5.38;4.18;;;15.80;53.00;;;;;;5023804;28;20052;-80
2021/10/11 12:28:53;;;;;;;11.70;4.70;;;15.70;53.40;;;;;;5023236;28;20026;-81
2021/10/11 12:31:26;;;;;;;8.60;5.20;;;15.80;52.20;;;;;;5021005;28;20026;-81
2021/10/11 12:34:00;;;;;;;7.63;5.22;;;15.80;51.70;;;;;;5020772;28;20422;-80
2021/10/11 12:36:27;;;;;;;7.22;5.55;;;15.70;52.20;;;;;;5019989;28;20109;-80
2021/10/11 12:38:53;;;;;;;7.32;4.97;;;15.70;51.60;;;;;;5019240;28;20018;-80
2021/10/11 12:41:19;;;;;;;8.88;4.72;;;15.60;52.10;;;;;;5019997;28;20072;-81
2021/10/11 12:44:01;;;;;;;13.32;5.47;;;15.70;52.30;;;;;;5006368;28;20034;-83
2021/10/11 12:46:27;;;;;;;6.63;4.63;;;15.80;51.70;;;;;;5027572;28;20033;-82
2021/10/11 12:49:01;;;;;;;8.57;5.13;;;15.70;51.20;;;;;;5010786;28;20030;-82